sensor_id;sensor_type;location;lat;lon;timestamp;P1;durP1;ratioP1;P2;durP2;ratioP2
67597;SDS011;62026;39.230;9.122;2023-11-19T00:01:22;10.20;;;2.70;;
67597;SDS011;62026;39.230;9.122;2023-11-19T00:03:48;11.13;;;2.47;;
67597;SDS011;62026;39.230;9.122;2023-11-19T00:06:15;12.70;;;2.95;;
67597;SDS011;62026;39.230;9.122;2023-11-19T00:08:42;8.25;;;2.03;;
67597;SDS011;62026;39.230;9.122;2023-11-19T00:11:09;15.27;;;2.65;;
67597;SDS011;62026;39.230;9.122;2023-11-19T00:13:35;8.25;;;2.22;;
67597;SDS011;62026;39.230;9.122;2023-11-19T00:16:00;8.15;;;2.38;;
67597;SDS011;62026;39.230;9.122;2023-11-19T00:18:29;12.85;;;2.80;;
67597;SDS011;62026;39.230;9.122;2023-11-19T00:20:55;14.35;;;2.92;;
67597;SDS011;62026;39.230;9.122;2023-11-19T00:23:21;9.05;;;2.55;;
67597;SDS011;62026;39.230;9.122;2023-11-19T00:25:48;14.65;;;2.88;;
67597;SDS011;62026;39.230;9.122;2023-11-19T00:28:14;11.23;;;2.60;;
67597;SDS011;62026;39.230;9.122;2023-11-19T00:30:40;14.23;;;2.60;;
67597;SDS011;62026;39.230;9.122;2023-11-19T00:33:06;11.05;;;2.40;;
67597;SDS011;62026;39.230;9.122;2023-11-19T00:35:32;7.07;;;2.47;;
67597;SDS011;62026;39.230;9.122;2023-11-19T00:37:58;11.65;;;2.55;;
67597;SDS011;62026;39.230;9.122;2023-11-19T00:40:24;14.90;;;2.22;;
67597;SDS011;62026;39.230;9.122;2023-11-19T00:42:50;8.18;;;1.95;;
67597;SDS011;62026;39.230;9.122;2023-11-19T00:45:16;7.78;;;2.25;;
67597;SDS011;62026;39.230;9.122;2023-11-19T00:47:41;16.98;;;2.65;;
67597;SDS011;62026;39.230;9.122;2023-11-19T00:50:08;12.40;;;2.20;;
67597;SDS011;62026;39.230;9.122;2023-11-19T00:52:35;17.75;;;2.67;;
67597;SDS011;62026;39.230;9.122;2023-11-19T00:55:02;9.93;;;2.15;;
67597;SDS011;62026;39.230;9.122;2023-11-19T00:57:30;7.40;;;2.00;;
67597;SDS011;62026;39.230;9.122;2023-11-19T00:59:58;9.27;;;2.65;;
67597;SDS011;62026;39.230;9.122;2023-11-19T01:02:25;12.50;;;2.10;;
67597;SDS011;62026;39.230;9.122;2023-11-19T01:04:51;8.50;;;2.13;;
67597;SDS011;62026;39.230;9.122;2023-11-19T01:07:17;8.55;;;2.45;;
67597;SDS011;62026;39.230;9.122;2023-11-19T01:09:43;9.98;;;2.10;;
67597;SDS011;62026;39.230;9.122;2023-11-19T01:12:09;6.50;;;1.83;;
67597;SDS011;62026;39.230;9.122;2023-11-19T01:14:35;5.28;;;1.60;;
67597;SDS011;62026;39.230;9.122;2023-11-19T01:17:02;9.02;;;1.83;;
67597;SDS011;62026;39.230;9.122;2023-11-19T01:19:30;10.30;;;2.00;;
67597;SDS011;62026;39.230;9.122;2023-11-19T01:21:55;9.43;;;1.98;;
67597;SDS011;62026;39.230;9.122;2023-11-19T01:24:21;11.73;;;1.55;;
67597;SDS011;62026;39.230;9.122;2023-11-19T01:26:47;9.38;;;1.60;;
67597;SDS011;62026;39.230;9.122;2023-11-19T01:29:14;9.15;;;1.60;;
67597;SDS011;62026;39.230;9.122;2023-11-19T01:31:40;12.13;;;1.50;;
67597;SDS011;62026;39.230;9.122;2023-11-19T01:34:12;5.50;;;1.40;;
67597;SDS011;62026;39.230;9.122;2023-11-19T01:36:38;9.80;;;1.75;;
67597;SDS011;62026;39.230;9.122;2023-11-19T01:39:04;11.00;;;1.73;;
67597;SDS011;62026;39.230;9.122;2023-11-19T01:41:34;8.95;;;1.92;;
67597;SDS011;62026;39.230;9.122;2023-11-19T01:44:01;7.43;;;1.70;;
67597;SDS011;62026;39.230;9.122;2023-11-19T01:46:27;6.93;;;1.52;;
67597;SDS011;62026;39.230;9.122;2023-11-19T01:48:55;9.82;;;1.92;;
67597;SDS011;62026;39.230;9.122;2023-11-19T01:51:21;11.00;;;1.60;;
67597;SDS011;62026;39.230;9.122;2023-11-19T01:53:47;7.75;;;1.83;;
67597;SDS011;62026;39.230;9.122;2023-11-19T01:56:15;9.77;;;1.42;;
67597;SDS011;62026;39.230;9.122;2023-11-19T01:58:42;9.18;;;1.65;;
67597;SDS011;62026;39.230;9.122;2023-11-19T02:01:10;9.27;;;1.70;;
67597;SDS011;62026;39.230;9.122;2023-11-19T02:03:38;7.80;;;1.48;;
67597;SDS011;62026;39.230;9.122;2023-11-19T02:06:04;7.97;;;1.60;;
67597;SDS011;62026;39.230;9.122;2023-11-19T02:08:32;7.97;;;1.85;;
67597;SDS011;62026;39.230;9.122;2023-11-19T02:10:58;7.57;;;1.50;;
67597;SDS011;62026;39.230;9.122;2023-11-19T02:13:25;12.00;;;1.60;;
67597;SDS011;62026;39.230;9.122;2023-11-19T02:15:53;6.90;;;1.35;;
67597;SDS011;62026;39.230;9.122;2023-11-19T02:20:47;7.93;;;1.50;;
67597;SDS011;62026;39.230;9.122;2023-11-19T02:23:15;8.52;;;1.70;;
67597;SDS011;62026;39.230;9.122;2023-11-19T02:25:42;9.25;;;1.48;;
67597;SDS011;62026;39.230;9.122;2023-11-19T02:30:41;9.45;;;1.17;;
67597;SDS011;62026;39.230;9.122;2023-11-19T02:33:07;5.35;;;1.17;;
67597;SDS011;62026;39.230;9.122;2023-11-19T02:35:33;7.45;;;1.35;;
67597;SDS011;62026;39.230;9.122;2023-11-19T02:37:59;7.88;;;1.30;;
67597;SDS011;62026;39.230;9.122;2023-11-19T02:40:26;6.05;;;1.30;;
67597;SDS011;62026;39.230;9.122;2023-11-19T02:42:52;7.72;;;1.48;;
67597;SDS011;62026;39.230;9.122;2023-11-19T02:45:20;7.75;;;1.58;;
67597;SDS011;62026;39.230;9.122;2023-11-19T02:47:50;7.07;;;1.15;;
67597;SDS011;62026;39.230;9.122;2023-11-19T02:50:18;6.55;;;1.27;;
67597;SDS011;62026;39.230;9.122;2023-11-19T02:52:51;5.18;;;1.30;;
67597;SDS011;62026;39.230;9.122;2023-11-19T02:55:19;8.82;;;1.27;;
67597;SDS011;62026;39.230;9.122;2023-11-19T02:57:45;4.75;;;0.88;;
67597;SDS011;62026;39.230;9.122;2023-11-19T03:00:17;7.30;;;1.27;;
67597;SDS011;62026;39.230;9.122;2023-11-19T03:02:49;8.80;;;1.20;;
67597;SDS011;62026;39.230;9.122;2023-11-19T03:05:30;9.10;;;1.15;;
67597;SDS011;62026;39.230;9.122;2023-11-19T03:07:56;11.90;;;1.27;;
67597;SDS011;62026;39.230;9.122;2023-11-19T03:10:22;7.03;;;1.15;;
67597;SDS011;62026;39.230;9.122;2023-11-19T03:12:49;10.65;;;1.35;;
67597;SDS011;62026;39.230;9.122;2023-11-19T03:15:15;12.38;;;1.17;;
67597;SDS011;62026;39.230;9.122;2023-11-19T03:17:41;4.85;;;1.08;;
67597;SDS011;62026;39.230;9.122;2023-11-19T03:20:09;7.22;;;1.50;;
67597;SDS011;62026;39.230;9.122;2023-11-19T03:22:40;4.95;;;1.23;;
67597;SDS011;62026;39.230;9.122;2023-11-19T03:25:07;5.18;;;1.42;;
67597;SDS011;62026;39.230;9.122;2023-11-19T03:27:34;5.45;;;1.25;;
67597;SDS011;62026;39.230;9.122;2023-11-19T03:30:05;9.68;;;1.25;;
67597;SDS011;62026;39.230;9.122;2023-11-19T03:32:32;7.25;;;1.20;;
67597;SDS011;62026;39.230;9.122;2023-11-19T03:35:01;8.85;;;1.48;;
67597;SDS011;62026;39.230;9.122;2023-11-19T03:37:29;8.20;;;1.50;;
67597;SDS011;62026;39.230;9.122;2023-11-19T03:39:57;6.07;;;1.00;;
67597;SDS011;62026;39.230;9.122;2023-11-19T03:42:28;7.75;;;1.50;;
67597;SDS011;62026;39.230;9.122;2023-11-19T03:47:23;7.70;;;1.35;;
67597;SDS011;62026;39.230;9.122;2023-11-19T03:49:49;8.80;;;1.73;;
67597;SDS011;62026;39.230;9.122;2023-11-19T03:52:16;5.93;;;1.10;;
67597;SDS011;62026;39.230;9.122;2023-11-19T03:54:43;4.20;;;0.98;;
67597;SDS011;62026;39.230;9.122;2023-11-19T03:57:11;6.88;;;1.15;;
67597;SDS011;62026;39.230;9.122;2023-11-19T03:59:38;7.22;;;1.20;;
67597;SDS011;62026;39.230;9.122;2023-11-19T04:02:04;7.57;;;1.27;;
67597;SDS011;62026;39.230;9.122;2023-11-19T04:04:31;11.27;;;1.40;;
67597;SDS011;62026;39.230;9.122;2023-11-19T04:06:58;6.03;;;1.50;;
67597;SDS011;62026;39.230;9.122;2023-11-19T04:09:26;6.10;;;1.10;;
67597;SDS011;62026;39.230;9.122;2023-11-19T04:11:52;8.00;;;1.38;;
67597;SDS011;62026;39.230;9.122;2023-11-19T04:14:18;8.43;;;1.48;;
67597;SDS011;62026;39.230;9.122;2023-11-19T04:16:44;7.28;;;1.30;;
67597;SDS011;62026;39.230;9.122;2023-11-19T04:19:11;8.07;;;1.30;;
67597;SDS011;62026;39.230;9.122;2023-11-19T04:21:37;5.18;;;1.27;;
67597;SDS011;62026;39.230;9.122;2023-11-19T04:24:09;4.00;;;1.05;;
67597;SDS011;62026;39.230;9.122;2023-11-19T04:26:42;7.57;;;1.40;;
67597;SDS011;62026;39.230;9.122;2023-11-19T04:29:13;4.93;;;1.00;;
67597;SDS011;62026;39.230;9.122;2023-11-19T04:31:44;4.70;;;1.42;;
67597;SDS011;62026;39.230;9.122;2023-11-19T04:34:11;11.27;;;1.20;;
67597;SDS011;62026;39.230;9.122;2023-11-19T04:36:37;6.00;;;1.33;;
67597;SDS011;62026;39.230;9.122;2023-11-19T04:39:04;6.05;;;0.93;;
67597;SDS011;62026;39.230;9.122;2023-11-19T04:41:35;7.15;;;1.10;;
67597;SDS011;62026;39.230;9.122;2023-11-19T04:44:01;7.35;;;1.30;;
67597;SDS011;62026;39.230;9.122;2023-11-19T04:46:27;6.70;;;1.10;;
67597;SDS011;62026;39.230;9.122;2023-11-19T04:48:53;8.00;;;1.10;;
67597;SDS011;62026;39.230;9.122;2023-11-19T04:51:19;5.43;;;0.90;;
67597;SDS011;62026;39.230;9.122;2023-11-19T04:53:45;7.10;;;1.00;;
67597;SDS011;62026;39.230;9.122;2023-11-19T04:56:11;6.78;;;1.20;;
67597;SDS011;62026;39.230;9.122;2023-11-19T04:58:38;2.75;;;0.80;;
67597;SDS011;62026;39.230;9.122;2023-11-19T05:01:04;9.48;;;0.90;;
67597;SDS011;62026;39.230;9.122;2023-11-19T05:03:31;6.13;;;1.27;;
67597;SDS011;62026;39.230;9.122;2023-11-19T05:05:57;4.63;;;0.90;;
67597;SDS011;62026;39.230;9.122;2023-11-19T05:08:24;3.97;;;1.10;;
67597;SDS011;62026;39.230;9.122;2023-11-19T05:10:50;5.43;;;1.08;;
67597;SDS011;62026;39.230;9.122;2023-11-19T05:13:16;7.18;;;0.88;;
67597;SDS011;62026;39.230;9.122;2023-11-19T05:15:42;6.00;;;1.65;;
67597;SDS011;62026;39.230;9.122;2023-11-19T05:18:08;6.32;;;1.00;;
67597;SDS011;62026;39.230;9.122;2023-11-19T05:20:34;5.00;;;0.90;;
67597;SDS011;62026;39.230;9.122;2023-11-19T05:23:00;8.05;;;1.27;;
67597;SDS011;62026;39.230;9.122;2023-11-19T05:25:26;4.70;;;1.23;;
67597;SDS011;62026;39.230;9.122;2023-11-19T05:27:53;6.53;;;1.00;;
67597;SDS011;62026;39.230;9.122;2023-11-19T05:30:19;5.50;;;0.73;;
67597;SDS011;62026;39.230;9.122;2023-11-19T05:32:45;5.68;;;1.10;;
67597;SDS011;62026;39.230;9.122;2023-11-19T05:35:11;11.50;;;1.17;;
67597;SDS011;62026;39.230;9.122;2023-11-19T05:37:37;7.35;;;0.90;;
67597;SDS011;62026;39.230;9.122;2023-11-19T05:40:03;7.97;;;1.00;;
67597;SDS011;62026;39.230;9.122;2023-11-19T05:42:39;2.60;;;0.90;;
67597;SDS011;62026;39.230;9.122;2023-11-19T05:45:10;7.05;;;1.15;;
67597;SDS011;62026;39.230;9.122;2023-11-19T05:47:37;3.88;;;1.00;;
67597;SDS011;62026;39.230;9.122;2023-11-19T05:50:03;7.97;;;1.45;;
67597;SDS011;62026;39.230;9.122;2023-11-19T05:52:31;6.25;;;1.23;;
67597;SDS011;62026;39.230;9.122;2023-11-19T05:55:01;8.00;;;1.27;;
67597;SDS011;62026;39.230;9.122;2023-11-19T05:57:38;5.05;;;1.38;;
67597;SDS011;62026;39.230;9.122;2023-11-19T06:00:07;6.55;;;1.35;;
67597;SDS011;62026;39.230;9.122;2023-11-19T06:02:38;9.60;;;1.70;;
67597;SDS011;62026;39.230;9.122;2023-11-19T06:05:04;8.82;;;1.50;;
67597;SDS011;62026;39.230;9.122;2023-11-19T06:07:32;5.25;;;1.45;;
67597;SDS011;62026;39.230;9.122;2023-11-19T06:09:58;6.70;;;1.50;;
67597;SDS011;62026;39.230;9.122;2023-11-19T06:12:24;5.15;;;1.27;;
67597;SDS011;62026;39.230;9.122;2023-11-19T06:14:52;9.30;;;1.60;;
67597;SDS011;62026;39.230;9.122;2023-11-19T06:17:18;10.85;;;1.80;;
67597;SDS011;62026;39.230;9.122;2023-11-19T06:19:44;9.70;;;1.50;;
67597;SDS011;62026;39.230;9.122;2023-11-19T06:22:10;7.82;;;1.60;;
67597;SDS011;62026;39.230;9.122;2023-11-19T06:24:36;11.00;;;1.48;;
67597;SDS011;62026;39.230;9.122;2023-11-19T06:27:02;5.45;;;1.58;;
67597;SDS011;62026;39.230;9.122;2023-11-19T06:29:29;11.63;;;1.88;;
67597;SDS011;62026;39.230;9.122;2023-11-19T06:31:55;8.02;;;1.92;;
67597;SDS011;62026;39.230;9.122;2023-11-19T06:34:22;9.98;;;2.47;;
67597;SDS011;62026;39.230;9.122;2023-11-19T06:36:47;5.18;;;1.95;;
67597;SDS011;62026;39.230;9.122;2023-11-19T06:39:14;7.60;;;1.90;;
67597;SDS011;62026;39.230;9.122;2023-11-19T06:41:44;9.25;;;1.95;;
67597;SDS011;62026;39.230;9.122;2023-11-19T06:44:11;6.37;;;2.00;;
67597;SDS011;62026;39.230;9.122;2023-11-19T06:46:37;9.25;;;1.98;;
67597;SDS011;62026;39.230;9.122;2023-11-19T06:49:03;6.32;;;1.85;;
67597;SDS011;62026;39.230;9.122;2023-11-19T06:51:29;5.85;;;1.85;;
67597;SDS011;62026;39.230;9.122;2023-11-19T06:53:55;9.02;;;2.38;;
67597;SDS011;62026;39.230;9.122;2023-11-19T06:56:22;9.40;;;2.47;;
67597;SDS011;62026;39.230;9.122;2023-11-19T06:58:49;3.92;;;1.73;;
67597;SDS011;62026;39.230;9.122;2023-11-19T07:01:16;8.88;;;2.38;;
67597;SDS011;62026;39.230;9.122;2023-11-19T07:03:46;6.00;;;1.70;;
67597;SDS011;62026;39.230;9.122;2023-11-19T07:06:13;9.85;;;1.98;;
67597;SDS011;62026;39.230;9.122;2023-11-19T07:08:42;9.18;;;2.00;;
67597;SDS011;62026;39.230;9.122;2023-11-19T07:11:12;11.07;;;2.00;;
67597;SDS011;62026;39.230;9.122;2023-11-19T07:13:41;5.70;;;1.98;;
67597;SDS011;62026;39.230;9.122;2023-11-19T07:16:07;10.32;;;2.00;;
67597;SDS011;62026;39.230;9.122;2023-11-19T07:18:35;10.60;;;2.00;;
67597;SDS011;62026;39.230;9.122;2023-11-19T07:21:01;7.90;;;1.85;;
67597;SDS011;62026;39.230;9.122;2023-11-19T07:23:28;8.55;;;1.75;;
67597;SDS011;62026;39.230;9.122;2023-11-19T07:25:54;6.90;;;1.67;;
67597;SDS011;62026;39.230;9.122;2023-11-19T07:28:20;10.73;;;2.00;;
67597;SDS011;62026;39.230;9.122;2023-11-19T07:30:45;10.18;;;1.83;;
67597;SDS011;62026;39.230;9.122;2023-11-19T07:33:11;5.60;;;1.70;;
67597;SDS011;62026;39.230;9.122;2023-11-19T07:35:39;5.25;;;1.50;;
67597;SDS011;62026;39.230;9.122;2023-11-19T07:38:07;9.60;;;2.10;;
67597;SDS011;62026;39.230;9.122;2023-11-19T07:40:33;7.32;;;1.75;;
67597;SDS011;62026;39.230;9.122;2023-11-19T07:42:59;10.52;;;2.25;;
67597;SDS011;62026;39.230;9.122;2023-11-19T07:45:25;10.40;;;1.73;;
67597;SDS011;62026;39.230;9.122;2023-11-19T07:47:52;7.38;;;2.30;;
67597;SDS011;62026;39.230;9.122;2023-11-19T07:50:19;9.63;;;1.92;;
67597;SDS011;62026;39.230;9.122;2023-11-19T07:52:45;8.70;;;1.90;;
67597;SDS011;62026;39.230;9.122;2023-11-19T07:55:11;6.35;;;1.73;;
67597;SDS011;62026;39.230;9.122;2023-11-19T07:57:37;6.72;;;2.15;;
67597;SDS011;62026;39.230;9.122;2023-11-19T08:00:03;11.50;;;2.20;;
67597;SDS011;62026;39.230;9.122;2023-11-19T08:02:38;9.93;;;1.85;;
67597;SDS011;62026;39.230;9.122;2023-11-19T08:05:04;5.97;;;1.67;;
67597;SDS011;62026;39.230;9.122;2023-11-19T08:07:31;7.05;;;1.75;;
67597;SDS011;62026;39.230;9.122;2023-11-19T08:09:57;12.23;;;2.10;;
67597;SDS011;62026;39.230;9.122;2023-11-19T08:12:22;7.13;;;2.65;;
67597;SDS011;62026;39.230;9.122;2023-11-19T08:14:48;9.40;;;2.40;;
67597;SDS011;62026;39.230;9.122;2023-11-19T08:17:14;9.93;;;2.40;;
67597;SDS011;62026;39.230;9.122;2023-11-19T08:19:41;7.18;;;2.50;;
67597;SDS011;62026;39.230;9.122;2023-11-19T08:22:07;7.30;;;2.22;;
67597;SDS011;62026;39.230;9.122;2023-11-19T08:24:34;12.73;;;2.50;;
67597;SDS011;62026;39.230;9.122;2023-11-19T08:27:00;7.10;;;2.03;;
67597;SDS011;62026;39.230;9.122;2023-11-19T08:29:26;9.52;;;2.10;;
67597;SDS011;62026;39.230;9.122;2023-11-19T08:31:53;7.57;;;2.13;;
67597;SDS011;62026;39.230;9.122;2023-11-19T08:34:18;4.60;;;1.80;;
67597;SDS011;62026;39.230;9.122;2023-11-19T08:36:44;5.32;;;2.30;;
67597;SDS011;62026;39.230;9.122;2023-11-19T08:39:10;9.15;;;2.72;;
67597;SDS011;62026;39.230;9.122;2023-11-19T08:41:36;12.07;;;3.05;;
67597;SDS011;62026;39.230;9.122;2023-11-19T08:44:04;12.40;;;4.18;;
67597;SDS011;62026;39.230;9.122;2023-11-19T08:46:30;12.20;;;4.55;;
67597;SDS011;62026;39.230;9.122;2023-11-19T08:48:56;12.77;;;4.05;;
67597;SDS011;62026;39.230;9.122;2023-11-19T08:51:22;15.32;;;3.83;;
67597;SDS011;62026;39.230;9.122;2023-11-19T08:53:50;12.07;;;3.35;;
67597;SDS011;62026;39.230;9.122;2023-11-19T08:56:16;9.98;;;3.50;;
67597;SDS011;62026;39.230;9.122;2023-11-19T08:58:42;11.30;;;3.42;;
67597;SDS011;62026;39.230;9.122;2023-11-19T09:01:08;10.77;;;3.40;;
67597;SDS011;62026;39.230;9.122;2023-11-19T09:03:35;10.57;;;3.47;;
67597;SDS011;62026;39.230;9.122;2023-11-19T09:06:02;10.43;;;3.42;;
67597;SDS011;62026;39.230;9.122;2023-11-19T09:08:28;10.10;;;3.08;;
67597;SDS011;62026;39.230;9.122;2023-11-19T09:10:54;8.60;;;2.42;;
67597;SDS011;62026;39.230;9.122;2023-11-19T09:13:20;13.18;;;2.88;;
67597;SDS011;62026;39.230;9.122;2023-11-19T09:15:46;7.20;;;2.03;;
67597;SDS011;62026;39.230;9.122;2023-11-19T09:18:11;8.07;;;2.05;;
67597;SDS011;62026;39.230;9.122;2023-11-19T09:20:37;7.78;;;1.90;;
67597;SDS011;62026;39.230;9.122;2023-11-19T09:23:04;9.43;;;2.40;;
67597;SDS011;62026;39.230;9.122;2023-11-19T09:25:31;9.00;;;2.30;;
67597;SDS011;62026;39.230;9.122;2023-11-19T09:27:57;10.13;;;2.47;;
67597;SDS011;62026;39.230;9.122;2023-11-19T09:30:23;6.00;;;1.80;;
67597;SDS011;62026;39.230;9.122;2023-11-19T09:32:49;9.00;;;2.17;;
67597;SDS011;62026;39.230;9.122;2023-11-19T09:35:15;11.20;;;3.28;;
67597;SDS011;62026;39.230;9.122;2023-11-19T09:37:43;17.83;;;3.03;;
67597;SDS011;62026;39.230;9.122;2023-11-19T09:40:09;8.27;;;2.00;;
67597;SDS011;62026;39.230;9.122;2023-11-19T09:42:42;9.52;;;2.10;;
67597;SDS011;62026;39.230;9.122;2023-11-19T09:45:14;8.50;;;2.00;;
67597;SDS011;62026;39.230;9.122;2023-11-19T09:47:43;6.63;;;2.33;;
67597;SDS011;62026;39.230;9.122;2023-11-19T09:50:16;10.60;;;2.33;;
67597;SDS011;62026;39.230;9.122;2023-11-19T09:52:44;6.47;;;2.15;;
67597;SDS011;62026;39.230;9.122;2023-11-19T09:55:11;14.27;;;2.25;;
67597;SDS011;62026;39.230;9.122;2023-11-19T09:57:38;14.63;;;2.30;;
67597;SDS011;62026;39.230;9.122;2023-11-19T10:00:07;8.15;;;2.00;;
67597;SDS011;62026;39.230;9.122;2023-11-19T10:02:36;9.48;;;2.10;;
67597;SDS011;62026;39.230;9.122;2023-11-19T10:05:06;6.63;;;2.20;;
67597;SDS011;62026;39.230;9.122;2023-11-19T10:07:33;7.68;;;2.05;;
67597;SDS011;62026;39.230;9.122;2023-11-19T10:09:59;7.45;;;2.45;;
67597;SDS011;62026;39.230;9.122;2023-11-19T10:12:27;7.85;;;2.72;;
67597;SDS011;62026;39.230;9.122;2023-11-19T10:14:55;7.70;;;2.53;;
67597;SDS011;62026;39.230;9.122;2023-11-19T10:17:29;8.52;;;2.30;;
67597;SDS011;62026;39.230;9.122;2023-11-19T10:20:00;8.80;;;2.10;;
67597;SDS011;62026;39.230;9.122;2023-11-19T10:22:27;7.25;;;1.77;;
67597;SDS011;62026;39.230;9.122;2023-11-19T10:24:53;6.75;;;1.50;;
67597;SDS011;62026;39.230;9.122;2023-11-19T10:27:19;6.63;;;1.85;;
67597;SDS011;62026;39.230;9.122;2023-11-19T10:29:46;5.47;;;1.63;;
67597;SDS011;62026;39.230;9.122;2023-11-19T10:32:13;8.68;;;1.80;;
67597;SDS011;62026;39.230;9.122;2023-11-19T10:34:42;5.88;;;1.50;;
67597;SDS011;62026;39.230;9.122;2023-11-19T10:37:08;4.43;;;1.52;;
67597;SDS011;62026;39.230;9.122;2023-11-19T10:39:51;8.57;;;2.00;;
67597;SDS011;62026;39.230;9.122;2023-11-19T10:42:19;5.85;;;2.30;;
67597;SDS011;62026;39.230;9.122;2023-11-19T10:44:46;10.60;;;2.35;;
67597;SDS011;62026;39.230;9.122;2023-11-19T10:47:15;5.82;;;1.90;;
67597;SDS011;62026;39.230;9.122;2023-11-19T10:49:45;7.80;;;2.13;;
67597;SDS011;62026;39.230;9.122;2023-11-19T10:52:12;6.47;;;2.17;;
67597;SDS011;62026;39.230;9.122;2023-11-19T10:54:44;9.93;;;2.42;;
67597;SDS011;62026;39.230;9.122;2023-11-19T10:59:47;10.75;;;3.22;;
67597;SDS011;62026;39.230;9.122;2023-11-19T11:02:18;13.32;;;4.35;;
67597;SDS011;62026;39.230;9.122;2023-11-19T11:04:49;11.10;;;2.83;;
67597;SDS011;62026;39.230;9.122;2023-11-19T11:07:16;9.55;;;2.88;;
67597;SDS011;62026;39.230;9.122;2023-11-19T11:09:51;6.55;;;2.65;;
67597;SDS011;62026;39.230;9.122;2023-11-19T11:12:18;8.95;;;2.70;;
67597;SDS011;62026;39.230;9.122;2023-11-19T11:14:49;8.93;;;2.53;;
67597;SDS011;62026;39.230;9.122;2023-11-19T11:17:16;8.85;;;2.72;;
67597;SDS011;62026;39.230;9.122;2023-11-19T11:19:44;8.13;;;2.63;;
67597;SDS011;62026;39.230;9.122;2023-11-19T11:22:10;6.47;;;2.70;;
67597;SDS011;62026;39.230;9.122;2023-11-19T11:27:38;6.88;;;2.45;;
67597;SDS011;62026;39.230;9.122;2023-11-19T11:30:46;11.02;;;2.80;;
67597;SDS011;62026;39.230;9.122;2023-11-19T11:39:52;12.65;;;2.55;;
67597;SDS011;62026;39.230;9.122;2023-11-19T11:50:14;10.85;;;2.70;;
67597;SDS011;62026;39.230;9.122;2023-11-19T11:55:33;11.95;;;3.15;;
67597;SDS011;62026;39.230;9.122;2023-11-19T11:58:05;8.57;;;3.25;;
67597;SDS011;62026;39.230;9.122;2023-11-19T12:00:32;6.75;;;3.05;;
67597;SDS011;62026;39.230;9.122;2023-11-19T12:03:03;10.68;;;2.47;;
67597;SDS011;62026;39.230;9.122;2023-11-19T12:05:33;10.88;;;2.90;;
67597;SDS011;62026;39.230;9.122;2023-11-19T12:08:05;9.43;;;2.33;;
67597;SDS011;62026;39.230;9.122;2023-11-19T12:13:16;9.48;;;2.65;;
67597;SDS011;62026;39.230;9.122;2023-11-19T12:18:28;10.60;;;3.30;;
67597;SDS011;62026;39.230;9.122;2023-11-19T12:20:59;12.10;;;2.58;;
67597;SDS011;62026;39.230;9.122;2023-11-19T12:23:34;7.13;;;1.60;;
67597;SDS011;62026;39.230;9.122;2023-11-19T12:26:00;6.68;;;1.90;;
67597;SDS011;62026;39.230;9.122;2023-11-19T12:28:26;7.85;;;2.30;;
67597;SDS011;62026;39.230;9.122;2023-11-19T12:30:52;10.30;;;2.22;;
67597;SDS011;62026;39.230;9.122;2023-11-19T12:33:19;10.18;;;1.63;;
67597;SDS011;62026;39.230;9.122;2023-11-19T12:35:46;13.13;;;1.50;;
67597;SDS011;62026;39.230;9.122;2023-11-19T12:38:22;4.10;;;1.25;;
67597;SDS011;62026;39.230;9.122;2023-11-19T12:43:33;8.38;;;1.55;;
67597;SDS011;62026;39.230;9.122;2023-11-19T12:45:59;8.95;;;1.67;;
67597;SDS011;62026;39.230;9.122;2023-11-19T12:48:26;7.18;;;1.65;;
67597;SDS011;62026;39.230;9.122;2023-11-19T12:50:55;7.30;;;1.30;;
67597;SDS011;62026;39.230;9.122;2023-11-19T12:53:27;9.68;;;1.83;;
67597;SDS011;62026;39.230;9.122;2023-11-19T12:55:54;5.10;;;1.58;;
67597;SDS011;62026;39.230;9.122;2023-11-19T12:58:34;7.88;;;2.05;;
67597;SDS011;62026;39.230;9.122;2023-11-19T13:01:05;6.53;;;1.48;;
67597;SDS011;62026;39.230;9.122;2023-11-19T13:03:36;3.45;;;1.27;;
67597;SDS011;62026;39.230;9.122;2023-11-19T13:06:07;4.35;;;1.30;;
67597;SDS011;62026;39.230;9.122;2023-11-19T13:08:41;6.72;;;1.40;;
67597;SDS011;62026;39.230;9.122;2023-11-19T13:11:12;8.20;;;1.50;;
67597;SDS011;62026;39.230;9.122;2023-11-19T13:16:30;4.93;;;1.20;;
67597;SDS011;62026;39.230;9.122;2023-11-19T13:18:56;8.35;;;1.92;;
67597;SDS011;62026;39.230;9.122;2023-11-19T13:21:25;6.30;;;1.63;;
67597;SDS011;62026;39.230;9.122;2023-11-19T13:23:51;6.38;;;1.63;;
67597;SDS011;62026;39.230;9.122;2023-11-19T13:26:17;7.18;;;2.15;;
67597;SDS011;62026;39.230;9.122;2023-11-19T13:28:43;12.95;;;2.03;;
67597;SDS011;62026;39.230;9.122;2023-11-19T13:31:09;8.98;;;1.80;;
67597;SDS011;62026;39.230;9.122;2023-11-19T13:33:35;8.73;;;1.60;;
67597;SDS011;62026;39.230;9.122;2023-11-19T13:36:02;3.63;;;1.20;;
67597;SDS011;62026;39.230;9.122;2023-11-19T13:38:32;3.10;;;1.10;;
67597;SDS011;62026;39.230;9.122;2023-11-19T13:40:59;9.95;;;1.50;;
67597;SDS011;62026;39.230;9.122;2023-11-19T13:43:25;8.77;;;1.33;;
67597;SDS011;62026;39.230;9.122;2023-11-19T13:45:53;7.13;;;1.65;;
67597;SDS011;62026;39.230;9.122;2023-11-19T13:48:20;10.63;;;1.85;;
67597;SDS011;62026;39.230;9.122;2023-11-19T13:50:46;7.90;;;1.10;;
67597;SDS011;62026;39.230;9.122;2023-11-19T13:53:12;11.20;;;1.40;;
67597;SDS011;62026;39.230;9.122;2023-11-19T13:55:38;7.55;;;1.30;;
67597;SDS011;62026;39.230;9.122;2023-11-19T13:58:04;8.80;;;1.20;;
67597;SDS011;62026;39.230;9.122;2023-11-19T14:00:30;7.13;;;1.25;;
67597;SDS011;62026;39.230;9.122;2023-11-19T14:02:56;8.77;;;1.33;;
67597;SDS011;62026;39.230;9.122;2023-11-19T14:05:22;5.43;;;1.05;;
67597;SDS011;62026;39.230;9.122;2023-11-19T14:07:48;5.95;;;1.20;;
67597;SDS011;62026;39.230;9.122;2023-11-19T14:10:15;3.90;;;1.15;;
67597;SDS011;62026;39.230;9.122;2023-11-19T14:12:41;7.72;;;1.30;;
67597;SDS011;62026;39.230;9.122;2023-11-19T14:15:08;5.13;;;1.58;;
67597;SDS011;62026;39.230;9.122;2023-11-19T14:17:37;5.43;;;1.00;;
67597;SDS011;62026;39.230;9.122;2023-11-19T14:20:03;6.47;;;1.20;;
67597;SDS011;62026;39.230;9.122;2023-11-19T14:22:44;7.47;;;1.30;;
67597;SDS011;62026;39.230;9.122;2023-11-19T14:25:14;7.22;;;2.13;;
67597;SDS011;62026;39.230;9.122;2023-11-19T14:27:41;10.10;;;1.75;;
67597;SDS011;62026;39.230;9.122;2023-11-19T14:30:09;6.05;;;1.23;;
67597;SDS011;62026;39.230;9.122;2023-11-19T14:32:39;10.57;;;1.50;;
67597;SDS011;62026;39.230;9.122;2023-11-19T14:35:12;5.53;;;1.23;;
67597;SDS011;62026;39.230;9.122;2023-11-19T14:37:38;5.93;;;1.23;;
67597;SDS011;62026;39.230;9.122;2023-11-19T14:40:04;5.40;;;1.23;;
67597;SDS011;62026;39.230;9.122;2023-11-19T14:42:32;5.55;;;1.10;;
67597;SDS011;62026;39.230;9.122;2023-11-19T14:44:58;9.48;;;1.20;;
67597;SDS011;62026;39.230;9.122;2023-11-19T14:47:24;9.48;;;1.10;;
67597;SDS011;62026;39.230;9.122;2023-11-19T14:49:50;4.40;;;1.15;;
67597;SDS011;62026;39.230;9.122;2023-11-19T14:52:16;6.40;;;1.45;;
67597;SDS011;62026;39.230;9.122;2023-11-19T14:54:42;3.90;;;1.00;;
67597;SDS011;62026;39.230;9.122;2023-11-19T14:57:09;5.15;;;1.10;;
67597;SDS011;62026;39.230;9.122;2023-11-19T14:59:36;4.80;;;1.00;;
67597;SDS011;62026;39.230;9.122;2023-11-19T15:02:05;7.78;;;1.10;;
67597;SDS011;62026;39.230;9.122;2023-11-19T15:04:31;7.47;;;1.50;;
67597;SDS011;62026;39.230;9.122;2023-11-19T15:06:58;9.60;;;1.67;;
67597;SDS011;62026;39.230;9.122;2023-11-19T15:09:25;5.93;;;1.10;;
67597;SDS011;62026;39.230;9.122;2023-11-19T15:11:54;5.28;;;1.27;;
67597;SDS011;62026;39.230;9.122;2023-11-19T15:14:20;5.82;;;1.20;;
67597;SDS011;62026;39.230;9.122;2023-11-19T15:16:46;5.80;;;1.13;;
67597;SDS011;62026;39.230;9.122;2023-11-19T15:19:15;6.78;;;1.40;;
67597;SDS011;62026;39.230;9.122;2023-11-19T15:21:41;5.22;;;1.73;;
67597;SDS011;62026;39.230;9.122;2023-11-19T15:24:08;6.28;;;2.00;;
67597;SDS011;62026;39.230;9.122;2023-11-19T15:26:34;7.95;;;1.75;;
67597;SDS011;62026;39.230;9.122;2023-11-19T15:29:01;12.63;;;2.17;;